METAR Data
IDs: Format: Raw Decoded Include TAF

Data at: 2351 UTC 25 Oct 2021

PAHO 252253Z 07006KT 10SM OVC020 06/01 A2905 RMK AO2 SLP838 T00560011
PAHO 252235Z 08006KT 10SM BKN021 BKN026 06/01 A2905 RMK AO2 T00560011
PAHO 252153Z 09005KT 10SM SCT029 06/01 A2906 RMK AO2 SLP839 T00560011
PAHO 252053Z 07004KT 10SM CLR 05/01 A2906 RMK AO2 SLP841 T00500006 58004
PAHO 251953Z 03004KT 10SM FEW070 BKN085 04/01 A2907 RMK AO2 SLP844 T00390006
PAHO 251853Z 03004KT 10SM BKN070 02/00 A2907 RMK AO2 SLP847 T00220000
PAHO 251753Z 04005KT 10SM SCT085 01/00 A2907 RMK AO2 SLP846 60000 T00110000 10033 20006 56005
PAHO 251653Z 03004KT 10SM BKN080 01/00 A2908 RMK AO2 SLP849 T00110000 $
PAHO 251553Z 04005KT 10SM FEW080 02/01 A2908 RMK AO2 SLP847 T00170006 $
PAHO 251453Z 02004KT 10SM BKN070 02/01 A2909 RMK AO2 SLP850 60000 T00170006 56016 $
PAHO 251353Z AUTO 00000KT 10SM CLR 02/01 A2910 RMK AO2 SLP854 T00170006 TSNO $
PAHO 251253Z AUTO 05004KT 10SM BKN046 03/01 A2912 RMK AO2 RAE1156 SLP861 P0000 T00280011 TSNO $
PAHO 251153Z AUTO 03004KT 10SM -RA OVC046 03/02 A2914 RMK AO2 RAB45 SLP866 P0000 60000 70002 T00330017 10044 20017 58021 TSNO $
PAHO 251122Z AUTO 04003KT 10SM SCT027 OVC044 04/02 A2915 RMK AO2 T00390022 TSNO $
PAHO 251053Z AUTO 03003KT 10SM OVC028 04/02 A2916 RMK AO2 SLP875 T00390022 TSNO $
PAHO 251043Z AUTO 00000KT 10SM BKN028 OVC036 03/02 A2916 RMK AO2 T00330022 TSNO $
PAHO 251020Z AUTO 09003KT 10SM SCT025 SCT030 OVC040 03/02 A2917 RMK AO2 T00280022 TSNO $
PAHO 250953Z AUTO 00000KT 10SM BKN027 OVC042 03/02 A2918 RMK AO2 SLP882 T00330022 TSNO $
PAHO 250904Z AUTO 00000KT 10SM BKN028 OVC040 03/02 A2920 RMK AO2 T00280022 TSNO $
PAHO 250853Z AUTO 00000KT 10SM SCT028 OVC039 03/02 A2920 RMK AO2 SLP888 60000 T00280022 400890000 56018 TSNO $
PAHO 250816Z AUTO 07003KT 10SM BKN028 BKN039 03/02 A2921 RMK AO2 T00330022 TSNO $
PAHO 250753Z AUTO 01003KT 10SM SCT039 02/01 A2921 RMK AO2 RAB00E18 SLP892 P0000 T00220011 TSNO $
PAHO 250653Z AUTO 00000KT 10SM BKN036 OVC046 03/02 A2923 RMK AO2 SLP899 T00330022 TSNO $
PAHO 250553Z AUTO 00000KT 10SM OVC034 04/02 A2925 RMK AO2 SLP906 60001 T00390022 10083 20033 56021 TSNO $
PAHO 250453Z 00000KT 10SM OVC042 05/03 A2927 RMK AO2 SLP913 T00500033 $
PAHO 250353Z 00000KT 10SM FEW032 OVC041 06/03 A2929 RMK AO2 RAB09E25 SLP920 P0001 T00560033 $
PAHO 250326Z 00000KT 10SM FEW020 BKN031 OVC049 06/03 A2930 RMK AO2 RAB09E25 P0001 T00610033 $
PAHO 250304Z 34003KT 10SM SCT012 OVC020 07/04 A2931 RMK AO2 T00670044 $
PAHO 250253Z 29003KT 10SM BKN012 BKN020 OVC085 07/04 A2932 RMK AO2 SLP927 T00670044 58018 $
PAHO 250153Z 25007KT 10SM SCT014 BKN045 BKN055 07/04 A2933 RMK AO2 SLP934 T00720044 $
PAHO 250132Z 25008KT 10SM SCT017 SCT055 07/04 A2934 RMK AO2 T00670039 $
PAHO 250110Z 25006KT 10SM BKN015 07/04 A2935 RMK AO2 T00720044 $
PAHO 250053Z 25008KT 10SM CLR 08/04 A2935 RMK AO2 SLP940 T00780044 $
PAHO 242353Z 25009KT 10SM CLR 08/04 A2937 RMK AO2 SLP945 T00830044 10089 20033 58013 $
PAHO 242253Z 25006KT 10SM CLR 08/04 A2939 RMK AO2 SLP951 T00780039 $
PAHO 242153Z 16003KT 10SM FEW035 SCT055 07/04 A2940 RMK AO2 SLP955 T00720039 $
PAHO 242053Z 00000KT 10SM CLR 08/04 A2941 RMK AO2 SLP958 T00780039 58006 $
PAHO 241953Z 10005KT 10SM BKN070 07/04 A2941 RMK AO2 SLP961 T00720044 $
PAHO 241853Z 04004KT 10SM FEW065 BKN090 07/04 A2942 RMK AO2 SLP963 T00670039 $
PAHO 241753Z 05003KT 10SM BKN055 OVC075 03/02 A2943 RMK AO2 SLP964 -SHRA P0001 60001 T00330022 10044 20000 51009 $
PAHO 241653Z 00000KT 10SM -RA OVC050 03/02 A2943 RMK AO2 SLP964 P0000 T00280022 $
PAHO 241553Z 00000KT 10SM OVC047 02/01 A2942 RMK AO2 SLP962 T00220011 $
PAHO 241453Z 00000KT 10SM OVC065 02/01 A2940 RMK AO2 SLP955 T00170006 53017 $
PAHO 241353Z AUTO 00000KT 10SM CLR 01/00 A2938 RMK AO2 SLP949 T00110000 TSNO $
PAHO 241253Z AUTO 00000KT 10SM CLR 02/02 A2936 RMK AO2 SLP944 T00220017 TSNO $
PAHO 241153Z AUTO 06004KT 10SM OVC095 04/02 A2935 RMK AO2 SLP938 T00390022 10056 20017 TSNO $